sensor_id;sensor_type;location;lat;lon;timestamp;temperature;humidity
51793;DHT22;37850;53.178;6.376;2023-07-29T00:00:46;19.50;99.90
51793;DHT22;37850;53.178;6.376;2023-07-29T00:03:12;19.50;99.90
51793;DHT22;37850;53.178;6.376;2023-07-29T00:05:38;19.40;99.90
51793;DHT22;37850;53.178;6.376;2023-07-29T00:08:04;19.40;99.90
51793;DHT22;37850;53.178;6.376;2023-07-29T00:10:32;19.40;99.90
51793;DHT22;37850;53.178;6.376;2023-07-29T00:12:58;19.40;99.90
51793;DHT22;37850;53.178;6.376;2023-07-29T00:15:24;19.40;99.90
51793;DHT22;37850;53.178;6.376;2023-07-29T00:17:50;19.40;99.90
51793;DHT22;37850;53.178;6.376;2023-07-29T00:20:16;19.40;99.90
51793;DHT22;37850;53.178;6.376;2023-07-29T00:22:42;19.40;99.90
51793;DHT22;37850;53.178;6.376;2023-07-29T00:25:07;19.40;99.90
51793;DHT22;37850;53.178;6.376;2023-07-29T00:27:33;19.30;99.90
51793;DHT22;37850;53.178;6.376;2023-07-29T00:29:59;19.30;99.90
51793;DHT22;37850;53.178;6.376;2023-07-29T00:32:26;19.30;99.90
51793;DHT22;37850;53.178;6.376;2023-07-29T00:34:52;19.30;99.90
51793;DHT22;37850;53.178;6.376;2023-07-29T00:37:18;19.30;99.90
51793;DHT22;37850;53.178;6.376;2023-07-29T00:39:44;19.30;99.90
51793;DHT22;37850;53.178;6.376;2023-07-29T00:42:09;19.30;99.90
51793;DHT22;37850;53.178;6.376;2023-07-29T00:44:35;19.30;99.90
51793;DHT22;37850;53.178;6.376;2023-07-29T00:47:02;19.30;99.90
51793;DHT22;37850;53.178;6.376;2023-07-29T00:49:30;19.20;99.90
51793;DHT22;37850;53.178;6.376;2023-07-29T00:51:56;19.20;99.90
51793;DHT22;37850;53.178;6.376;2023-07-29T00:54:23;19.30;99.90
51793;DHT22;37850;53.178;6.376;2023-07-29T00:56:49;19.30;99.90
51793;DHT22;37850;53.178;6.376;2023-07-29T00:59:15;19.30;99.90
51793;DHT22;37850;53.178;6.376;2023-07-29T01:01:40;19.20;99.90
51793;DHT22;37850;53.178;6.376;2023-07-29T01:04:06;19.20;99.90
51793;DHT22;37850;53.178;6.376;2023-07-29T01:07:32;19.20;99.90
51793;DHT22;37850;53.178;6.376;2023-07-29T01:17:33;19.20;99.90
51793;DHT22;37850;53.178;6.376;2023-07-29T01:22:25;19.10;99.90
51793;DHT22;37850;53.178;6.376;2023-07-29T01:24:51;19.10;99.90
51793;DHT22;37850;53.178;6.376;2023-07-29T01:27:17;19.10;99.90
51793;DHT22;37850;53.178;6.376;2023-07-29T01:29:43;19.10;99.90
51793;DHT22;37850;53.178;6.376;2023-07-29T01:32:22;19.00;99.90
51793;DHT22;37850;53.178;6.376;2023-07-29T01:37:27;19.00;99.90
51793;DHT22;37850;53.178;6.376;2023-07-29T01:39:57;19.00;99.90
51793;DHT22;37850;53.178;6.376;2023-07-29T01:42:24;19.00;99.90
51793;DHT22;37850;53.178;6.376;2023-07-29T01:44:51;18.90;99.90
51793;DHT22;37850;53.178;6.376;2023-07-29T01:47:17;18.90;99.90
51793;DHT22;37850;53.178;6.376;2023-07-29T01:49:43;18.90;99.90
51793;DHT22;37850;53.178;6.376;2023-07-29T01:52:08;18.80;99.90
51793;DHT22;37850;53.178;6.376;2023-07-29T01:54:34;18.80;99.90
51793;DHT22;37850;53.178;6.376;2023-07-29T01:57:00;18.80;99.90
51793;DHT22;37850;53.178;6.376;2023-07-29T01:59:25;18.90;99.90
51793;DHT22;37850;53.178;6.376;2023-07-29T02:01:51;18.80;99.90
51793;DHT22;37850;53.178;6.376;2023-07-29T02:04:17;18.80;99.90
51793;DHT22;37850;53.178;6.376;2023-07-29T02:06:43;18.70;99.90
51793;DHT22;37850;53.178;6.376;2023-07-29T02:09:11;18.70;99.90
51793;DHT22;37850;53.178;6.376;2023-07-29T02:11:37;18.70;99.90
51793;DHT22;37850;53.178;6.376;2023-07-29T02:14:03;18.60;99.90
51793;DHT22;37850;53.178;6.376;2023-07-29T02:16:29;18.60;99.90
51793;DHT22;37850;53.178;6.376;2023-07-29T02:18:54;18.60;99.90
51793;DHT22;37850;53.178;6.376;2023-07-29T02:21:20;18.60;99.90
51793;DHT22;37850;53.178;6.376;2023-07-29T02:23:46;18.50;99.90
51793;DHT22;37850;53.178;6.376;2023-07-29T02:26:12;18.50;99.90
51793;DHT22;37850;53.178;6.376;2023-07-29T02:28:37;18.50;99.90
51793;DHT22;37850;53.178;6.376;2023-07-29T02:31:20;18.50;99.90
51793;DHT22;37850;53.178;6.376;2023-07-29T02:33:46;18.50;99.90
51793;DHT22;37850;53.178;6.376;2023-07-29T02:36:13;18.40;99.90
51793;DHT22;37850;53.178;6.376;2023-07-29T02:38:40;18.40;99.90
51793;DHT22;37850;53.178;6.376;2023-07-29T02:41:05;18.40;99.90
51793;DHT22;37850;53.178;6.376;2023-07-29T02:43:31;18.30;99.90
51793;DHT22;37850;53.178;6.376;2023-07-29T02:45:57;18.30;99.90
51793;DHT22;37850;53.178;6.376;2023-07-29T02:48:24;18.30;99.90
51793;DHT22;37850;53.178;6.376;2023-07-29T02:50:50;18.30;99.90
51793;DHT22;37850;53.178;6.376;2023-07-29T02:53:15;18.30;99.90
51793;DHT22;37850;53.178;6.376;2023-07-29T02:55:41;18.20;99.90
51793;DHT22;37850;53.178;6.376;2023-07-29T02:58:07;18.20;99.90
51793;DHT22;37850;53.178;6.376;2023-07-29T03:00:33;18.20;99.90
51793;DHT22;37850;53.178;6.376;2023-07-29T03:02:59;18.20;99.90
51793;DHT22;37850;53.178;6.376;2023-07-29T03:05:27;18.20;99.90
51793;DHT22;37850;53.178;6.376;2023-07-29T03:07:53;18.20;99.90
51793;DHT22;37850;53.178;6.376;2023-07-29T03:10:19;18.10;99.90
51793;DHT22;37850;53.178;6.376;2023-07-29T03:12:44;18.10;99.90
51793;DHT22;37850;53.178;6.376;2023-07-29T03:15:11;18.10;99.90
51793;DHT22;37850;53.178;6.376;2023-07-29T03:17:37;18.10;99.90
51793;DHT22;37850;53.178;6.376;2023-07-29T03:20:02;18.10;99.90
51793;DHT22;37850;53.178;6.376;2023-07-29T03:22:28;18.10;99.90
51793;DHT22;37850;53.178;6.376;2023-07-29T03:24:54;18.00;99.90
51793;DHT22;37850;53.178;6.376;2023-07-29T03:27:19;18.00;99.90
51793;DHT22;37850;53.178;6.376;2023-07-29T03:29:46;18.00;99.90
51793;DHT22;37850;53.178;6.376;2023-07-29T03:32:11;18.00;99.90
51793;DHT22;37850;53.178;6.376;2023-07-29T03:34:37;18.00;99.90
51793;DHT22;37850;53.178;6.376;2023-07-29T03:37:04;18.00;99.90
51793;DHT22;37850;53.178;6.376;2023-07-29T03:39:29;17.90;99.90
51793;DHT22;37850;53.178;6.376;2023-07-29T03:41:55;17.90;99.90
51793;DHT22;37850;53.178;6.376;2023-07-29T03:44:21;17.90;99.90
51793;DHT22;37850;53.178;6.376;2023-07-29T03:46:47;17.80;99.90
51793;DHT22;37850;53.178;6.376;2023-07-29T03:49:12;17.80;99.90
51793;DHT22;37850;53.178;6.376;2023-07-29T03:51:39;17.80;99.90
51793;DHT22;37850;53.178;6.376;2023-07-29T03:54:04;17.80;99.90
51793;DHT22;37850;53.178;6.376;2023-07-29T03:56:30;17.80;99.90
51793;DHT22;37850;53.178;6.376;2023-07-29T03:59:03;17.80;99.90
51793;DHT22;37850;53.178;6.376;2023-07-29T04:01:29;17.80;99.90
51793;DHT22;37850;53.178;6.376;2023-07-29T04:03:54;17.70;99.90
51793;DHT22;37850;53.178;6.376;2023-07-29T04:06:20;17.70;99.90
51793;DHT22;37850;53.178;6.376;2023-07-29T04:08:46;17.70;99.90
51793;DHT22;37850;53.178;6.376;2023-07-29T04:11:12;17.70;99.90
51793;DHT22;37850;53.178;6.376;2023-07-29T04:13:38;17.70;99.90
51793;DHT22;37850;53.178;6.376;2023-07-29T04:16:04;17.60;99.90
51793;DHT22;37850;53.178;6.376;2023-07-29T04:18:30;17.70;99.90
51793;DHT22;37850;53.178;6.376;2023-07-29T04:20:56;17.60;99.90
51793;DHT22;37850;53.178;6.376;2023-07-29T04:23:22;17.60;99.90
51793;DHT22;37850;53.178;6.376;2023-07-29T04:25:47;17.60;99.90
51793;DHT22;37850;53.178;6.376;2023-07-29T04:28:13;17.60;99.90
51793;DHT22;37850;53.178;6.376;2023-07-29T04:30:39;17.60;99.90
51793;DHT22;37850;53.178;6.376;2023-07-29T04:33:05;17.60;99.90
51793;DHT22;37850;53.178;6.376;2023-07-29T04:35:30;17.60;99.90
51793;DHT22;37850;53.178;6.376;2023-07-29T04:37:56;17.60;99.90
51793;DHT22;37850;53.178;6.376;2023-07-29T04:40:22;17.60;99.90
51793;DHT22;37850;53.178;6.376;2023-07-29T04:42:48;17.50;99.90
51793;DHT22;37850;53.178;6.376;2023-07-29T04:45:14;17.50;99.90
51793;DHT22;37850;53.178;6.376;2023-07-29T04:47:41;17.60;99.90
51793;DHT22;37850;53.178;6.376;2023-07-29T04:50:09;17.70;99.90
51793;DHT22;37850;53.178;6.376;2023-07-29T04:52:34;17.80;99.90
51793;DHT22;37850;53.178;6.376;2023-07-29T04:55:00;17.80;99.90
51793;DHT22;37850;53.178;6.376;2023-07-29T04:57:26;17.80;99.90
51793;DHT22;37850;53.178;6.376;2023-07-29T04:59:52;17.80;99.90
51793;DHT22;37850;53.178;6.376;2023-07-29T05:02:17;17.80;99.90
51793;DHT22;37850;53.178;6.376;2023-07-29T05:04:43;17.80;99.90
51793;DHT22;37850;53.178;6.376;2023-07-29T05:07:09;17.80;99.90
51793;DHT22;37850;53.178;6.376;2023-07-29T05:09:35;17.80;99.90
51793;DHT22;37850;53.178;6.376;2023-07-29T05:12:00;17.80;99.90
51793;DHT22;37850;53.178;6.376;2023-07-29T05:14:26;17.80;99.90
51793;DHT22;37850;53.178;6.376;2023-07-29T05:16:52;17.70;99.90
51793;DHT22;37850;53.178;6.376;2023-07-29T05:19:18;17.80;99.90
51793;DHT22;37850;53.178;6.376;2023-07-29T05:21:43;17.70;99.90
51793;DHT22;37850;53.178;6.376;2023-07-29T05:24:09;17.70;99.90
51793;DHT22;37850;53.178;6.376;2023-07-29T05:26:35;17.70;99.90
51793;DHT22;37850;53.178;6.376;2023-07-29T05:29:01;17.70;99.90
51793;DHT22;37850;53.178;6.376;2023-07-29T05:31:26;17.70;99.90
51793;DHT22;37850;53.178;6.376;2023-07-29T05:33:53;17.70;99.90
51793;DHT22;37850;53.178;6.376;2023-07-29T05:36:18;17.60;99.90
51793;DHT22;37850;53.178;6.376;2023-07-29T05:38:44;17.70;99.90
51793;DHT22;37850;53.178;6.376;2023-07-29T05:41:10;17.60;99.90
51793;DHT22;37850;53.178;6.376;2023-07-29T05:43:37;17.60;99.90
51793;DHT22;37850;53.178;6.376;2023-07-29T05:46:03;17.70;99.90
51793;DHT22;37850;53.178;6.376;2023-07-29T05:48:28;17.60;99.90
51793;DHT22;37850;53.178;6.376;2023-07-29T05:50:54;17.70;99.90
51793;DHT22;37850;53.178;6.376;2023-07-29T05:53:20;17.70;99.90
51793;DHT22;37850;53.178;6.376;2023-07-29T05:55:45;17.70;99.90
51793;DHT22;37850;53.178;6.376;2023-07-29T05:58:11;17.70;99.90
51793;DHT22;37850;53.178;6.376;2023-07-29T06:00:37;17.70;99.90
51793;DHT22;37850;53.178;6.376;2023-07-29T06:03:03;17.70;99.90
51793;DHT22;37850;53.178;6.376;2023-07-29T06:05:28;17.70;99.90
51793;DHT22;37850;53.178;6.376;2023-07-29T06:07:54;17.70;99.90
51793;DHT22;37850;53.178;6.376;2023-07-29T06:10:20;17.60;99.90
51793;DHT22;37850;53.178;6.376;2023-07-29T06:12:46;17.70;99.90
51793;DHT22;37850;53.178;6.376;2023-07-29T06:15:12;17.70;99.90
51793;DHT22;37850;53.178;6.376;2023-07-29T06:17:39;17.70;99.90
51793;DHT22;37850;53.178;6.376;2023-07-29T06:20:05;17.70;99.90
51793;DHT22;37850;53.178;6.376;2023-07-29T06:22:31;17.80;99.90
51793;DHT22;37850;53.178;6.376;2023-07-29T06:24:57;17.80;99.90
51793;DHT22;37850;53.178;6.376;2023-07-29T06:27:23;17.80;99.90
51793;DHT22;37850;53.178;6.376;2023-07-29T06:29:50;17.80;99.90
51793;DHT22;37850;53.178;6.376;2023-07-29T06:32:16;17.90;99.90
51793;DHT22;37850;53.178;6.376;2023-07-29T06:34:41;18.00;99.90
51793;DHT22;37850;53.178;6.376;2023-07-29T06:37:07;18.00;99.90
51793;DHT22;37850;53.178;6.376;2023-07-29T06:39:33;18.00;99.90
51793;DHT22;37850;53.178;6.376;2023-07-29T06:41:58;18.10;99.90
51793;DHT22;37850;53.178;6.376;2023-07-29T06:44:24;18.10;99.90
51793;DHT22;37850;53.178;6.376;2023-07-29T06:46:50;18.10;99.90
51793;DHT22;37850;53.178;6.376;2023-07-29T06:49:16;18.20;99.90
51793;DHT22;37850;53.178;6.376;2023-07-29T06:51:41;18.10;99.90
51793;DHT22;37850;53.178;6.376;2023-07-29T06:54:07;18.20;99.90
51793;DHT22;37850;53.178;6.376;2023-07-29T06:56:33;18.20;99.90
51793;DHT22;37850;53.178;6.376;2023-07-29T06:58:58;18.30;99.90
51793;DHT22;37850;53.178;6.376;2023-07-29T07:01:24;18.30;99.90
51793;DHT22;37850;53.178;6.376;2023-07-29T07:03:50;18.30;99.90
51793;DHT22;37850;53.178;6.376;2023-07-29T07:06:15;18.30;99.90
51793;DHT22;37850;53.178;6.376;2023-07-29T07:08:41;18.40;99.90
51793;DHT22;37850;53.178;6.376;2023-07-29T07:11:07;18.40;99.90
51793;DHT22;37850;53.178;6.376;2023-07-29T07:13:33;18.40;99.90
51793;DHT22;37850;53.178;6.376;2023-07-29T07:15:59;18.50;99.90
51793;DHT22;37850;53.178;6.376;2023-07-29T07:18:24;18.50;99.90
51793;DHT22;37850;53.178;6.376;2023-07-29T07:20:50;18.60;99.90
51793;DHT22;37850;53.178;6.376;2023-07-29T07:23:18;18.60;99.90
51793;DHT22;37850;53.178;6.376;2023-07-29T07:25:44;18.60;99.90
51793;DHT22;37850;53.178;6.376;2023-07-29T07:28:10;18.60;99.90
51793;DHT22;37850;53.178;6.376;2023-07-29T07:30:39;18.60;99.90
51793;DHT22;37850;53.178;6.376;2023-07-29T07:33:06;18.60;99.90
51793;DHT22;37850;53.178;6.376;2023-07-29T07:35:35;18.70;99.90
51793;DHT22;37850;53.178;6.376;2023-07-29T07:38:01;18.70;99.90
51793;DHT22;37850;53.178;6.376;2023-07-29T07:40:30;18.70;99.90
51793;DHT22;37850;53.178;6.376;2023-07-29T07:42:56;18.80;99.90
51793;DHT22;37850;53.178;6.376;2023-07-29T07:45:24;18.80;99.90
51793;DHT22;37850;53.178;6.376;2023-07-29T07:47:55;18.90;99.90
51793;DHT22;37850;53.178;6.376;2023-07-29T07:50:21;18.90;99.90
51793;DHT22;37850;53.178;6.376;2023-07-29T07:52:47;19.00;99.90
51793;DHT22;37850;53.178;6.376;2023-07-29T07:55:13;19.00;99.90
51793;DHT22;37850;53.178;6.376;2023-07-29T07:57:38;19.10;99.90
51793;DHT22;37850;53.178;6.376;2023-07-29T08:00:05;19.10;99.90
51793;DHT22;37850;53.178;6.376;2023-07-29T08:02:30;19.10;99.90
51793;DHT22;37850;53.178;6.376;2023-07-29T08:04:56;19.20;99.90
51793;DHT22;37850;53.178;6.376;2023-07-29T08:07:22;19.30;99.90
51793;DHT22;37850;53.178;6.376;2023-07-29T08:09:48;19.40;99.90
51793;DHT22;37850;53.178;6.376;2023-07-29T08:12:13;19.40;99.90
51793;DHT22;37850;53.178;6.376;2023-07-29T08:14:39;19.50;99.90
51793;DHT22;37850;53.178;6.376;2023-07-29T08:17:05;19.50;99.90
51793;DHT22;37850;53.178;6.376;2023-07-29T08:19:30;19.50;99.90
51793;DHT22;37850;53.178;6.376;2023-07-29T08:21:56;19.60;99.90
51793;DHT22;37850;53.178;6.376;2023-07-29T08:24:22;19.60;99.90
51793;DHT22;37850;53.178;6.376;2023-07-29T08:26:47;19.50;99.90
51793;DHT22;37850;53.178;6.376;2023-07-29T08:29:13;19.50;99.90
51793;DHT22;37850;53.178;6.376;2023-07-29T08:31:39;19.60;99.90
51793;DHT22;37850;53.178;6.376;2023-07-29T08:34:04;19.60;99.90
51793;DHT22;37850;53.178;6.376;2023-07-29T08:36:30;19.60;99.90
51793;DHT22;37850;53.178;6.376;2023-07-29T08:38:56;19.70;99.90
51793;DHT22;37850;53.178;6.376;2023-07-29T08:41:26;19.70;99.90
51793;DHT22;37850;53.178;6.376;2023-07-29T08:44:20;19.80;99.90
51793;DHT22;37850;53.178;6.376;2023-07-29T08:46:48;19.80;99.90
51793;DHT22;37850;53.178;6.376;2023-07-29T08:49:15;19.90;99.90
51793;DHT22;37850;53.178;6.376;2023-07-29T08:51:43;19.90;99.90
51793;DHT22;37850;53.178;6.376;2023-07-29T08:54:10;19.90;99.90
51793;DHT22;37850;53.178;6.376;2023-07-29T08:56:37;19.90;99.90
51793;DHT22;37850;53.178;6.376;2023-07-29T08:59:03;20.00;99.90
51793;DHT22;37850;53.178;6.376;2023-07-29T09:01:30;19.90;99.90
51793;DHT22;37850;53.178;6.376;2023-07-29T09:03:56;19.90;99.90
51793;DHT22;37850;53.178;6.376;2023-07-29T09:06:23;20.00;99.90
51793;DHT22;37850;53.178;6.376;2023-07-29T09:08:51;20.10;99.90
51793;DHT22;37850;53.178;6.376;2023-07-29T09:11:19;20.10;99.90
51793;DHT22;37850;53.178;6.376;2023-07-29T09:13:46;20.20;99.90
51793;DHT22;37850;53.178;6.376;2023-07-29T09:16:12;20.30;99.90
51793;DHT22;37850;53.178;6.376;2023-07-29T09:18:37;20.40;99.90
51793;DHT22;37850;53.178;6.376;2023-07-29T09:21:03;20.40;99.90
51793;DHT22;37850;53.178;6.376;2023-07-29T09:23:39;20.40;99.90
51793;DHT22;37850;53.178;6.376;2023-07-29T09:26:06;20.50;99.90
51793;DHT22;37850;53.178;6.376;2023-07-29T09:28:34;20.50;99.90
51793;DHT22;37850;53.178;6.376;2023-07-29T09:31:00;20.50;99.90
51793;DHT22;37850;53.178;6.376;2023-07-29T09:33:26;20.50;99.90
51793;DHT22;37850;53.178;6.376;2023-07-29T09:35:52;20.70;99.90
51793;DHT22;37850;53.178;6.376;2023-07-29T09:38:18;20.60;99.90
51793;DHT22;37850;53.178;6.376;2023-07-29T09:40:57;20.70;99.90
51793;DHT22;37850;53.178;6.376;2023-07-29T09:43:34;20.70;99.90
51793;DHT22;37850;53.178;6.376;2023-07-29T09:46:01;20.80;99.90
51793;DHT22;37850;53.178;6.376;2023-07-29T09:48:27;20.80;99.90
51793;DHT22;37850;53.178;6.376;2023-07-29T09:50:54;20.80;99.90
51793;DHT22;37850;53.178;6.376;2023-07-29T09:53:20;20.80;99.90
51793;DHT22;37850;53.178;6.376;2023-07-29T09:55:47;20.80;99.90
51793;DHT22;37850;53.178;6.376;2023-07-29T09:58:26;20.90;99.90
51793;DHT22;37850;53.178;6.376;2023-07-29T10:00:52;21.00;99.90
51793;DHT22;37850;53.178;6.376;2023-07-29T10:03:20;21.00;99.90
51793;DHT22;37850;53.178;6.376;2023-07-29T10:05:47;21.10;99.90
51793;DHT22;37850;53.178;6.376;2023-07-29T10:08:13;21.10;99.90
51793;DHT22;37850;53.178;6.376;2023-07-29T10:10:42;21.10;99.90
51793;DHT22;37850;53.178;6.376;2023-07-29T10:13:09;21.10;99.90
51793;DHT22;37850;53.178;6.376;2023-07-29T10:15:36;21.20;99.90
51793;DHT22;37850;53.178;6.376;2023-07-29T10:18:02;21.20;99.90
51793;DHT22;37850;53.178;6.376;2023-07-29T10:20:31;21.30;99.90
51793;DHT22;37850;53.178;6.376;2023-07-29T10:23:00;21.30;99.90
51793;DHT22;37850;53.178;6.376;2023-07-29T10:25:35;21.40;99.90
51793;DHT22;37850;53.178;6.376;2023-07-29T10:28:07;21.50;99.90
51793;DHT22;37850;53.178;6.376;2023-07-29T10:30:33;21.60;99.90
51793;DHT22;37850;53.178;6.376;2023-07-29T10:33:02;21.70;99.90
51793;DHT22;37850;53.178;6.376;2023-07-29T10:35:28;21.80;99.90
51793;DHT22;37850;53.178;6.376;2023-07-29T10:37:55;21.80;99.90
51793;DHT22;37850;53.178;6.376;2023-07-29T10:40:22;21.80;99.90
51793;DHT22;37850;53.178;6.376;2023-07-29T10:43:06;21.80;99.90
51793;DHT22;37850;53.178;6.376;2023-07-29T10:45:41;21.80;99.90
51793;DHT22;37850;53.178;6.376;2023-07-29T10:51:26;21.70;99.90
51793;DHT22;37850;53.178;6.376;2023-07-29T10:54:03;21.60;99.90
51793;DHT22;37850;53.178;6.376;2023-07-29T10:56:31;21.50;99.90
51793;DHT22;37850;53.178;6.376;2023-07-29T10:59:02;21.50;99.90
51793;DHT22;37850;53.178;6.376;2023-07-29T11:01:56;21.40;99.90
51793;DHT22;37850;53.178;6.376;2023-07-29T11:04:23;21.30;99.90
51793;DHT22;37850;53.178;6.376;2023-07-29T11:12:40;21.00;99.90
51793;DHT22;37850;53.178;6.376;2023-07-29T11:17:41;20.80;99.90
51793;DHT22;37850;53.178;6.376;2023-07-29T11:20:08;20.80;99.90
51793;DHT22;37850;53.178;6.376;2023-07-29T11:22:34;20.80;99.90
51793;DHT22;37850;53.178;6.376;2023-07-29T11:25:00;20.70;99.90
51793;DHT22;37850;53.178;6.376;2023-07-29T11:27:26;20.80;99.90
51793;DHT22;37850;53.178;6.376;2023-07-29T11:30:06;20.90;99.90
51793;DHT22;37850;53.178;6.376;2023-07-29T11:32:33;20.90;99.90
51793;DHT22;37850;53.178;6.376;2023-07-29T11:37:29;21.10;99.90
51793;DHT22;37850;53.178;6.376;2023-07-29T11:39:55;21.20;99.90
51793;DHT22;37850;53.178;6.376;2023-07-29T11:42:21;21.20;99.90
51793;DHT22;37850;53.178;6.376;2023-07-29T11:44:47;21.20;99.90
51793;DHT22;37850;53.178;6.376;2023-07-29T11:47:13;21.10;99.90
51793;DHT22;37850;53.178;6.376;2023-07-29T11:49:40;21.10;99.90
51793;DHT22;37850;53.178;6.376;2023-07-29T11:52:10;21.10;99.90
51793;DHT22;37850;53.178;6.376;2023-07-29T11:54:37;21.10;99.90
51793;DHT22;37850;53.178;6.376;2023-07-29T11:57:12;21.00;99.90
51793;DHT22;37850;53.178;6.376;2023-07-29T11:59:39;21.00;99.90
51793;DHT22;37850;53.178;6.376;2023-07-29T12:02:16;21.00;99.90
51793;DHT22;37850;53.178;6.376;2023-07-29T12:04:47;21.00;99.90
51793;DHT22;37850;53.178;6.376;2023-07-29T12:07:14;21.00;99.90
51793;DHT22;37850;53.178;6.376;2023-07-29T12:09:41;21.00;99.90
51793;DHT22;37850;53.178;6.376;2023-07-29T12:12:08;21.00;99.90
51793;DHT22;37850;53.178;6.376;2023-07-29T12:14:34;21.00;99.90
51793;DHT22;37850;53.178;6.376;2023-07-29T12:17:01;21.00;99.90
51793;DHT22;37850;53.178;6.376;2023-07-29T12:19:35;21.00;99.90
51793;DHT22;37850;53.178;6.376;2023-07-29T12:22:02;21.00;99.90
51793;DHT22;37850;53.178;6.376;2023-07-29T12:24:33;21.00;99.90
51793;DHT22;37850;53.178;6.376;2023-07-29T12:27:00;21.00;99.90
51793;DHT22;37850;53.178;6.376;2023-07-29T12:29:26;20.90;99.90
51793;DHT22;37850;53.178;6.376;2023-07-29T12:32:03;20.90;99.90
51793;DHT22;37850;53.178;6.376;2023-07-29T12:34:30;20.90;99.90
51793;DHT22;37850;53.178;6.376;2023-07-29T12:36:58;20.90;99.90
51793;DHT22;37850;53.178;6.376;2023-07-29T12:39:29;20.90;99.90
51793;DHT22;37850;53.178;6.376;2023-07-29T12:41:57;21.00;99.90
51793;DHT22;37850;53.178;6.376;2023-07-29T12:44:24;21.10;99.90
51793;DHT22;37850;53.178;6.376;2023-07-29T12:46:51;21.10;99.90
51793;DHT22;37850;53.178;6.376;2023-07-29T12:49:19;21.20;99.90
51793;DHT22;37850;53.178;6.376;2023-07-29T12:51:45;21.20;99.90
51793;DHT22;37850;53.178;6.376;2023-07-29T12:54:11;21.10;99.90
51793;DHT22;37850;53.178;6.376;2023-07-29T12:56:37;21.10;99.90
51793;DHT22;37850;53.178;6.376;2023-07-29T12:59:04;21.10;99.90
51793;DHT22;37850;53.178;6.376;2023-07-29T13:01:30;21.10;99.90
51793;DHT22;37850;53.178;6.376;2023-07-29T13:03:56;21.10;99.90
51793;DHT22;37850;53.178;6.376;2023-07-29T13:06:22;21.00;99.90
51793;DHT22;37850;53.178;6.376;2023-07-29T13:08:48;21.00;99.90
51793;DHT22;37850;53.178;6.376;2023-07-29T13:11:15;21.10;99.90
51793;DHT22;37850;53.178;6.376;2023-07-29T13:13:41;21.10;99.90
51793;DHT22;37850;53.178;6.376;2023-07-29T13:16:07;21.20;99.90
51793;DHT22;37850;53.178;6.376;2023-07-29T13:18:33;21.20;99.90
51793;DHT22;37850;53.178;6.376;2023-07-29T13:20:59;21.20;99.90
51793;DHT22;37850;53.178;6.376;2023-07-29T13:23:26;21.20;99.90
51793;DHT22;37850;53.178;6.376;2023-07-29T13:25:52;21.20;99.90
51793;DHT22;37850;53.178;6.376;2023-07-29T13:28:18;21.20;99.90
51793;DHT22;37850;53.178;6.376;2023-07-29T13:30:45;21.20;99.90
51793;DHT22;37850;53.178;6.376;2023-07-29T13:33:10;21.20;99.90
51793;DHT22;37850;53.178;6.376;2023-07-29T13:35:36;21.20;99.90
51793;DHT22;37850;53.178;6.376;2023-07-29T13:38:02;21.20;99.90
51793;DHT22;37850;53.178;6.376;2023-07-29T13:40:29;21.10;99.90
51793;DHT22;37850;53.178;6.376;2023-07-29T13:42:55;21.10;99.90
51793;DHT22;37850;53.178;6.376;2023-07-29T13:45:21;21.00;99.90
51793;DHT22;37850;53.178;6.376;2023-07-29T13:47:48;21.10;99.90
51793;DHT22;37850;53.178;6.376;2023-07-29T13:50:14;21.10;99.90
51793;DHT22;37850;53.178;6.376;2023-07-29T13:52:40;21.20;99.90
51793;DHT22;37850;53.178;6.376;2023-07-29T13:55:06;21.30;99.90
51793;DHT22;37850;53.178;6.376;2023-07-29T13:57:32;21.30;99.90
51793;DHT22;37850;53.178;6.376;2023-07-29T13:59:58;21.30;99.90
51793;DHT22;37850;53.178;6.376;2023-07-29T14:02:24;21.40;99.90
51793;DHT22;37850;53.178;6.376;2023-07-29T14:04:54;21.40;99.90
51793;DHT22;37850;53.178;6.376;2023-07-29T14:07:20;21.40;99.90
51793;DHT22;37850;53.178;6.376;2023-07-29T14:09:46;21.40;99.90
51793;DHT22;37850;53.178;6.376;2023-07-29T14:12:12;21.40;99.90
51793;DHT22;37850;53.178;6.376;2023-07-29T14:14:40;21.40;99.90
51793;DHT22;37850;53.178;6.376;2023-07-29T14:17:06;21.50;99.90
51793;DHT22;37850;53.178;6.376;2023-07-29T14:19:34;21.50;99.90
51793;DHT22;37850;53.178;6.376;2023-07-29T14:22:00;21.50;99.90
51793;DHT22;37850;53.178;6.376;2023-07-29T14:24:25;21.60;99.90
51793;DHT22;37850;53.178;6.376;2023-07-29T14:26:51;21.50;99.90
51793;DHT22;37850;53.178;6.376;2023-07-29T14:29:17;21.50;99.90
51793;DHT22;37850;53.178;6.376;2023-07-29T14:31:42;21.50;99.90
51793;DHT22;37850;53.178;6.376;2023-07-29T14:34:09;21.50;99.90
51793;DHT22;37850;53.178;6.376;2023-07-29T14:36:35;21.40;99.90
51793;DHT22;37850;53.178;6.376;2023-07-29T14:39:00;21.50;99.90
51793;DHT22;37850;53.178;6.376;2023-07-29T14:41:26;21.50;99.90
51793;DHT22;37850;53.178;6.376;2023-07-29T14:43:52;21.50;99.90
51793;DHT22;37850;53.178;6.376;2023-07-29T14:46:18;21.50;99.90
51793;DHT22;37850;53.178;6.376;2023-07-29T14:48:43;21.50;99.90
51793;DHT22;37850;53.178;6.376;2023-07-29T14:51:09;21.50;99.90
51793;DHT22;37850;53.178;6.376;2023-07-29T14:53:35;21.50;99.90
51793;DHT22;37850;53.178;6.376;2023-07-29T14:56:00;21.40;99.90
51793;DHT22;37850;53.178;6.376;2023-07-29T14:58:26;21.40;99.90
51793;DHT22;37850;53.178;6.376;2023-07-29T15:00:52;21.40;99.90
51793;DHT22;37850;53.178;6.376;2023-07-29T15:03:18;21.40;99.90
51793;DHT22;37850;53.178;6.376;2023-07-29T15:05:43;21.50;99.90
51793;DHT22;37850;53.178;6.376;2023-07-29T15:08:09;21.60;99.90
51793;DHT22;37850;53.178;6.376;2023-07-29T15:10:35;21.70;99.90
51793;DHT22;37850;53.178;6.376;2023-07-29T15:13:01;21.70;99.90
51793;DHT22;37850;53.178;6.376;2023-07-29T15:15:27;21.70;99.90
51793;DHT22;37850;53.178;6.376;2023-07-29T15:17:53;21.80;99.90
51793;DHT22;37850;53.178;6.376;2023-07-29T15:20:19;21.80;99.90
51793;DHT22;37850;53.178;6.376;2023-07-29T15:22:44;21.90;99.90
51793;DHT22;37850;53.178;6.376;2023-07-29T15:25:10;21.80;99.90
51793;DHT22;37850;53.178;6.376;2023-07-29T15:27:37;21.90;99.90
51793;DHT22;37850;53.178;6.376;2023-07-29T15:30:03;21.90;99.90
51793;DHT22;37850;53.178;6.376;2023-07-29T15:32:29;21.90;99.90
51793;DHT22;37850;53.178;6.376;2023-07-29T15:34:55;21.90;99.90
51793;DHT22;37850;53.178;6.376;2023-07-29T15:37:21;21.90;99.90
51793;DHT22;37850;53.178;6.376;2023-07-29T15:39:46;21.90;99.90
51793;DHT22;37850;53.178;6.376;2023-07-29T15:42:12;21.90;99.90
51793;DHT22;37850;53.178;6.376;2023-07-29T15:44:38;21.90;99.90
51793;DHT22;37850;53.178;6.376;2023-07-29T15:47:04;22.00;99.90
51793;DHT22;37850;53.178;6.376;2023-07-29T15:49:29;21.90;99.90
51793;DHT22;37850;53.178;6.376;2023-07-29T15:52:05;21.90;99.90
51793;DHT22;37850;53.178;6.376;2023-07-29T15:54:30;21.90;99.90